sensor_id;sensor_type;location;lat;lon;timestamp;P1;durP1;ratioP1;P2;durP2;ratioP2
40993;SDS011;26722;43.212;27.932;2024-01-10T00:01:13;12.90;;;5.45;;
40993;SDS011;26722;43.212;27.932;2024-01-10T00:03:38;10.45;;;4.95;;
40993;SDS011;26722;43.212;27.932;2024-01-10T00:06:03;9.88;;;4.57;;
40993;SDS011;26722;43.212;27.932;2024-01-10T00:08:29;17.83;;;5.93;;
40993;SDS011;26722;43.212;27.932;2024-01-10T00:10:54;12.85;;;5.03;;
40993;SDS011;26722;43.212;27.932;2024-01-10T00:13:20;10.73;;;4.97;;
40993;SDS011;26722;43.212;27.932;2024-01-10T00:15:46;14.40;;;5.40;;
40993;SDS011;26722;43.212;27.932;2024-01-10T00:18:11;13.05;;;4.90;;
40993;SDS011;26722;43.212;27.932;2024-01-10T00:20:37;13.27;;;5.78;;
40993;SDS011;26722;43.212;27.932;2024-01-10T00:23:02;12.88;;;5.47;;
40993;SDS011;26722;43.212;27.932;2024-01-10T00:25:27;13.60;;;5.13;;
40993;SDS011;26722;43.212;27.932;2024-01-10T00:27:53;10.38;;;4.90;;
40993;SDS011;26722;43.212;27.932;2024-01-10T00:30:18;13.35;;;5.03;;
40993;SDS011;26722;43.212;27.932;2024-01-10T00:32:43;11.63;;;5.25;;
40993;SDS011;26722;43.212;27.932;2024-01-10T00:35:08;13.52;;;5.20;;
40993;SDS011;26722;43.212;27.932;2024-01-10T00:37:35;12.73;;;5.55;;
40993;SDS011;26722;43.212;27.932;2024-01-10T00:40:00;14.18;;;4.80;;
40993;SDS011;26722;43.212;27.932;2024-01-10T00:42:26;15.80;;;5.68;;
40993;SDS011;26722;43.212;27.932;2024-01-10T00:44:52;12.35;;;5.05;;
40993;SDS011;26722;43.212;27.932;2024-01-10T00:47:17;19.95;;;4.85;;
40993;SDS011;26722;43.212;27.932;2024-01-10T00:49:42;10.18;;;4.80;;
40993;SDS011;26722;43.212;27.932;2024-01-10T00:52:07;14.20;;;5.47;;
40993;SDS011;26722;43.212;27.932;2024-01-10T00:54:33;13.80;;;5.32;;
40993;SDS011;26722;43.212;27.932;2024-01-10T00:56:58;14.60;;;5.50;;
40993;SDS011;26722;43.212;27.932;2024-01-10T00:59:23;15.93;;;5.60;;
40993;SDS011;26722;43.212;27.932;2024-01-10T01:01:48;11.52;;;5.45;;
40993;SDS011;26722;43.212;27.932;2024-01-10T01:04:14;15.90;;;5.32;;
40993;SDS011;26722;43.212;27.932;2024-01-10T01:06:39;16.52;;;5.80;;
40993;SDS011;26722;43.212;27.932;2024-01-10T01:09:04;14.98;;;5.40;;
40993;SDS011;26722;43.212;27.932;2024-01-10T01:11:29;16.17;;;6.00;;
40993;SDS011;26722;43.212;27.932;2024-01-10T01:13:55;11.95;;;5.55;;
40993;SDS011;26722;43.212;27.932;2024-01-10T01:16:20;14.25;;;5.72;;
40993;SDS011;26722;43.212;27.932;2024-01-10T01:18:45;20.40;;;5.95;;
40993;SDS011;26722;43.212;27.932;2024-01-10T01:21:11;14.70;;;5.78;;
40993;SDS011;26722;43.212;27.932;2024-01-10T01:23:36;12.70;;;6.05;;
40993;SDS011;26722;43.212;27.932;2024-01-10T01:26:02;15.05;;;5.38;;
40993;SDS011;26722;43.212;27.932;2024-01-10T01:28:29;15.05;;;6.20;;
40993;SDS011;26722;43.212;27.932;2024-01-10T01:30:54;19.77;;;6.75;;
40993;SDS011;26722;43.212;27.932;2024-01-10T01:33:19;13.32;;;5.60;;
40993;SDS011;26722;43.212;27.932;2024-01-10T01:35:44;10.23;;;4.47;;
40993;SDS011;26722;43.212;27.932;2024-01-10T01:38:10;17.48;;;5.68;;
40993;SDS011;26722;43.212;27.932;2024-01-10T01:40:35;13.38;;;6.15;;
40993;SDS011;26722;43.212;27.932;2024-01-10T01:43:00;15.52;;;5.95;;
40993;SDS011;26722;43.212;27.932;2024-01-10T01:45:25;13.60;;;4.85;;
40993;SDS011;26722;43.212;27.932;2024-01-10T01:47:51;16.35;;;6.13;;
40993;SDS011;26722;43.212;27.932;2024-01-10T01:50:16;11.23;;;5.28;;
40993;SDS011;26722;43.212;27.932;2024-01-10T01:52:42;15.65;;;6.40;;
40993;SDS011;26722;43.212;27.932;2024-01-10T01:55:08;19.25;;;6.88;;
40993;SDS011;26722;43.212;27.932;2024-01-10T01:57:34;16.52;;;6.03;;
40993;SDS011;26722;43.212;27.932;2024-01-10T02:00:00;19.23;;;6.43;;
40993;SDS011;26722;43.212;27.932;2024-01-10T02:02:25;12.75;;;4.80;;
40993;SDS011;26722;43.212;27.932;2024-01-10T02:04:50;16.98;;;6.00;;
40993;SDS011;26722;43.212;27.932;2024-01-10T02:07:16;14.43;;;5.55;;
40993;SDS011;26722;43.212;27.932;2024-01-10T02:09:41;13.80;;;5.90;;
40993;SDS011;26722;43.212;27.932;2024-01-10T02:12:07;14.00;;;5.72;;
40993;SDS011;26722;43.212;27.932;2024-01-10T02:14:32;18.17;;;6.57;;
40993;SDS011;26722;43.212;27.932;2024-01-10T02:16:57;13.63;;;6.05;;
40993;SDS011;26722;43.212;27.932;2024-01-10T02:19:23;12.93;;;5.85;;
40993;SDS011;26722;43.212;27.932;2024-01-10T02:21:48;12.98;;;5.22;;
40993;SDS011;26722;43.212;27.932;2024-01-10T02:24:14;14.90;;;6.32;;
40993;SDS011;26722;43.212;27.932;2024-01-10T02:26:39;16.30;;;6.65;;
40993;SDS011;26722;43.212;27.932;2024-01-10T02:29:05;18.35;;;6.18;;
40993;SDS011;26722;43.212;27.932;2024-01-10T02:31:30;13.02;;;5.90;;
40993;SDS011;26722;43.212;27.932;2024-01-10T02:33:55;16.15;;;6.32;;
40993;SDS011;26722;43.212;27.932;2024-01-10T02:36:21;16.13;;;5.45;;
40993;SDS011;26722;43.212;27.932;2024-01-10T02:38:46;19.25;;;7.28;;
40993;SDS011;26722;43.212;27.932;2024-01-10T02:41:12;13.43;;;4.78;;
40993;SDS011;26722;43.212;27.932;2024-01-10T02:43:37;17.65;;;7.18;;
40993;SDS011;26722;43.212;27.932;2024-01-10T02:46:03;16.48;;;6.38;;
40993;SDS011;26722;43.212;27.932;2024-01-10T02:48:28;13.63;;;5.40;;
40993;SDS011;26722;43.212;27.932;2024-01-10T02:50:53;14.18;;;6.70;;
40993;SDS011;26722;43.212;27.932;2024-01-10T02:53:20;17.15;;;5.43;;
40993;SDS011;26722;43.212;27.932;2024-01-10T02:55:46;12.77;;;5.57;;
40993;SDS011;26722;43.212;27.932;2024-01-10T02:58:11;12.30;;;5.85;;
40993;SDS011;26722;43.212;27.932;2024-01-10T03:00:36;11.00;;;5.28;;
40993;SDS011;26722;43.212;27.932;2024-01-10T03:03:02;13.80;;;5.53;;
40993;SDS011;26722;43.212;27.932;2024-01-10T03:05:28;16.40;;;5.60;;
40993;SDS011;26722;43.212;27.932;2024-01-10T03:07:53;13.85;;;5.68;;
40993;SDS011;26722;43.212;27.932;2024-01-10T03:10:18;16.58;;;6.07;;
40993;SDS011;26722;43.212;27.932;2024-01-10T03:12:44;13.82;;;5.90;;
40993;SDS011;26722;43.212;27.932;2024-01-10T03:15:09;15.05;;;6.60;;
40993;SDS011;26722;43.212;27.932;2024-01-10T03:17:34;13.57;;;5.75;;
40993;SDS011;26722;43.212;27.932;2024-01-10T03:20:01;19.58;;;7.47;;
40993;SDS011;26722;43.212;27.932;2024-01-10T03:22:26;19.33;;;7.05;;
40993;SDS011;26722;43.212;27.932;2024-01-10T03:24:51;18.13;;;6.43;;
40993;SDS011;26722;43.212;27.932;2024-01-10T03:27:16;15.93;;;6.00;;
40993;SDS011;26722;43.212;27.932;2024-01-10T03:29:42;17.73;;;6.28;;
40993;SDS011;26722;43.212;27.932;2024-01-10T03:32:07;13.95;;;5.65;;
40993;SDS011;26722;43.212;27.932;2024-01-10T03:34:32;16.52;;;5.88;;
40993;SDS011;26722;43.212;27.932;2024-01-10T03:36:57;16.83;;;6.15;;
40993;SDS011;26722;43.212;27.932;2024-01-10T03:39:23;14.30;;;6.10;;
40993;SDS011;26722;43.212;27.932;2024-01-10T03:41:48;13.88;;;6.25;;
40993;SDS011;26722;43.212;27.932;2024-01-10T03:44:13;17.80;;;6.80;;
40993;SDS011;26722;43.212;27.932;2024-01-10T03:46:39;11.98;;;5.78;;
40993;SDS011;26722;43.212;27.932;2024-01-10T03:49:04;17.92;;;6.78;;
40993;SDS011;26722;43.212;27.932;2024-01-10T03:51:29;15.65;;;6.03;;
40993;SDS011;26722;43.212;27.932;2024-01-10T03:53:55;17.80;;;6.10;;
40993;SDS011;26722;43.212;27.932;2024-01-10T03:56:20;13.27;;;5.60;;
40993;SDS011;26722;43.212;27.932;2024-01-10T03:58:46;15.82;;;5.72;;
40993;SDS011;26722;43.212;27.932;2024-01-10T04:01:13;15.65;;;6.07;;
40993;SDS011;26722;43.212;27.932;2024-01-10T04:03:39;15.68;;;6.43;;
40993;SDS011;26722;43.212;27.932;2024-01-10T04:06:07;20.13;;;6.18;;
40993;SDS011;26722;43.212;27.932;2024-01-10T04:08:32;13.13;;;5.88;;
40993;SDS011;26722;43.212;27.932;2024-01-10T04:10:58;15.13;;;6.40;;
40993;SDS011;26722;43.212;27.932;2024-01-10T04:13:23;16.85;;;6.35;;
40993;SDS011;26722;43.212;27.932;2024-01-10T04:15:48;16.60;;;6.38;;
40993;SDS011;26722;43.212;27.932;2024-01-10T04:18:14;15.70;;;6.65;;
40993;SDS011;26722;43.212;27.932;2024-01-10T04:20:39;15.77;;;6.18;;
40993;SDS011;26722;43.212;27.932;2024-01-10T04:23:04;18.92;;;6.40;;
40993;SDS011;26722;43.212;27.932;2024-01-10T04:25:30;14.77;;;6.10;;
40993;SDS011;26722;43.212;27.932;2024-01-10T04:27:55;21.30;;;6.32;;
40993;SDS011;26722;43.212;27.932;2024-01-10T04:30:22;13.25;;;5.95;;
40993;SDS011;26722;43.212;27.932;2024-01-10T04:32:47;19.38;;;6.70;;
40993;SDS011;26722;43.212;27.932;2024-01-10T04:35:12;17.83;;;6.07;;
40993;SDS011;26722;43.212;27.932;2024-01-10T04:37:38;16.20;;;6.10;;
40993;SDS011;26722;43.212;27.932;2024-01-10T04:40:03;14.60;;;6.10;;
40993;SDS011;26722;43.212;27.932;2024-01-10T04:42:29;16.20;;;5.78;;
40993;SDS011;26722;43.212;27.932;2024-01-10T04:44:55;17.33;;;6.20;;
40993;SDS011;26722;43.212;27.932;2024-01-10T04:47:20;17.52;;;6.30;;
40993;SDS011;26722;43.212;27.932;2024-01-10T04:49:46;17.38;;;5.93;;
40993;SDS011;26722;43.212;27.932;2024-01-10T04:52:11;15.13;;;5.78;;
40993;SDS011;26722;43.212;27.932;2024-01-10T04:54:37;12.85;;;5.50;;
40993;SDS011;26722;43.212;27.932;2024-01-10T04:57:02;17.65;;;5.53;;
40993;SDS011;26722;43.212;27.932;2024-01-10T04:59:28;17.42;;;5.95;;
40993;SDS011;26722;43.212;27.932;2024-01-10T05:01:53;12.20;;;5.05;;
40993;SDS011;26722;43.212;27.932;2024-01-10T05:04:18;13.52;;;5.78;;
40993;SDS011;26722;43.212;27.932;2024-01-10T05:06:44;14.05;;;5.63;;
40993;SDS011;26722;43.212;27.932;2024-01-10T05:09:09;13.20;;;5.53;;
40993;SDS011;26722;43.212;27.932;2024-01-10T05:11:35;10.40;;;4.40;;
40993;SDS011;26722;43.212;27.932;2024-01-10T05:14:01;11.50;;;4.68;;
40993;SDS011;26722;43.212;27.932;2024-01-10T05:16:26;12.27;;;5.60;;
40993;SDS011;26722;43.212;27.932;2024-01-10T05:18:51;11.85;;;5.20;;
40993;SDS011;26722;43.212;27.932;2024-01-10T05:21:16;14.52;;;5.32;;
40993;SDS011;26722;43.212;27.932;2024-01-10T05:23:42;18.70;;;5.93;;
40993;SDS011;26722;43.212;27.932;2024-01-10T05:26:07;15.13;;;5.63;;
40993;SDS011;26722;43.212;27.932;2024-01-10T05:28:32;8.75;;;4.50;;
40993;SDS011;26722;43.212;27.932;2024-01-10T05:31:01;19.20;;;4.82;;
40993;SDS011;26722;43.212;27.932;2024-01-10T05:33:26;5.22;;;2.63;;
40993;SDS011;26722;43.212;27.932;2024-01-10T05:35:51;11.65;;;4.32;;
40993;SDS011;26722;43.212;27.932;2024-01-10T05:38:17;18.85;;;3.10;;
40993;SDS011;26722;43.212;27.932;2024-01-10T05:40:42;8.38;;;4.20;;
40993;SDS011;26722;43.212;27.932;2024-01-10T05:43:07;13.60;;;4.85;;
40993;SDS011;26722;43.212;27.932;2024-01-10T05:45:33;9.60;;;4.63;;
40993;SDS011;26722;43.212;27.932;2024-01-10T05:47:58;9.85;;;4.00;;
40993;SDS011;26722;43.212;27.932;2024-01-10T05:50:24;10.88;;;4.50;;
40993;SDS011;26722;43.212;27.932;2024-01-10T05:52:49;10.77;;;4.45;;
40993;SDS011;26722;43.212;27.932;2024-01-10T05:55:14;10.77;;;4.40;;
40993;SDS011;26722;43.212;27.932;2024-01-10T05:57:39;12.68;;;4.40;;
40993;SDS011;26722;43.212;27.932;2024-01-10T06:00:05;9.80;;;3.70;;
40993;SDS011;26722;43.212;27.932;2024-01-10T06:02:35;12.07;;;4.05;;
40993;SDS011;26722;43.212;27.932;2024-01-10T06:05:04;8.63;;;3.80;;
40993;SDS011;26722;43.212;27.932;2024-01-10T06:07:30;8.85;;;3.35;;
40993;SDS011;26722;43.212;27.932;2024-01-10T06:09:55;8.05;;;2.72;;
40993;SDS011;26722;43.212;27.932;2024-01-10T06:12:20;9.82;;;3.85;;
40993;SDS011;26722;43.212;27.932;2024-01-10T06:14:46;3.97;;;2.53;;
40993;SDS011;26722;43.212;27.932;2024-01-10T06:17:11;7.30;;;3.05;;
40993;SDS011;26722;43.212;27.932;2024-01-10T06:19:36;7.05;;;2.60;;
40993;SDS011;26722;43.212;27.932;2024-01-10T06:22:02;8.40;;;3.17;;
40993;SDS011;26722;43.212;27.932;2024-01-10T06:24:27;8.00;;;3.55;;
40993;SDS011;26722;43.212;27.932;2024-01-10T06:26:52;9.55;;;2.97;;
40993;SDS011;26722;43.212;27.932;2024-01-10T06:29:18;8.15;;;2.72;;
40993;SDS011;26722;43.212;27.932;2024-01-10T06:31:43;6.53;;;3.00;;
40993;SDS011;26722;43.212;27.932;2024-01-10T06:34:08;9.73;;;3.45;;
40993;SDS011;26722;43.212;27.932;2024-01-10T06:36:34;9.98;;;3.80;;
40993;SDS011;26722;43.212;27.932;2024-01-10T06:38:59;14.30;;;3.90;;
40993;SDS011;26722;43.212;27.932;2024-01-10T06:41:25;5.85;;;2.95;;
40993;SDS011;26722;43.212;27.932;2024-01-10T06:43:53;10.73;;;3.90;;
40993;SDS011;26722;43.212;27.932;2024-01-10T06:46:18;13.50;;;4.07;;
40993;SDS011;26722;43.212;27.932;2024-01-10T06:48:44;9.10;;;4.22;;
40993;SDS011;26722;43.212;27.932;2024-01-10T06:51:10;7.72;;;3.63;;
40993;SDS011;26722;43.212;27.932;2024-01-10T06:53:36;6.65;;;3.28;;
40993;SDS011;26722;43.212;27.932;2024-01-10T06:56:01;8.75;;;4.60;;
40993;SDS011;26722;43.212;27.932;2024-01-10T06:58:26;15.52;;;5.22;;
40993;SDS011;26722;43.212;27.932;2024-01-10T07:00:52;10.23;;;4.85;;
40993;SDS011;26722;43.212;27.932;2024-01-10T07:03:17;11.25;;;4.93;;
40993;SDS011;26722;43.212;27.932;2024-01-10T07:05:43;13.30;;;4.60;;
40993;SDS011;26722;43.212;27.932;2024-01-10T07:08:09;11.40;;;4.88;;
40993;SDS011;26722;43.212;27.932;2024-01-10T07:10:34;11.80;;;4.75;;
40993;SDS011;26722;43.212;27.932;2024-01-10T07:13:00;11.05;;;4.43;;
40993;SDS011;26722;43.212;27.932;2024-01-10T07:15:29;17.15;;;5.63;;
40993;SDS011;26722;43.212;27.932;2024-01-10T07:17:54;13.38;;;4.53;;
40993;SDS011;26722;43.212;27.932;2024-01-10T07:20:19;10.48;;;4.10;;
40993;SDS011;26722;43.212;27.932;2024-01-10T07:22:44;9.13;;;3.67;;
40993;SDS011;26722;43.212;27.932;2024-01-10T07:25:10;10.68;;;3.80;;
40993;SDS011;26722;43.212;27.932;2024-01-10T07:27:39;12.65;;;3.85;;
40993;SDS011;26722;43.212;27.932;2024-01-10T07:30:05;10.07;;;4.07;;
40993;SDS011;26722;43.212;27.932;2024-01-10T07:32:36;11.57;;;3.47;;
40993;SDS011;26722;43.212;27.932;2024-01-10T07:35:02;6.50;;;3.40;;
40993;SDS011;26722;43.212;27.932;2024-01-10T07:37:27;6.00;;;3.13;;
40993;SDS011;26722;43.212;27.932;2024-01-10T07:39:52;6.68;;;2.92;;
40993;SDS011;26722;43.212;27.932;2024-01-10T07:42:19;8.88;;;3.38;;
40993;SDS011;26722;43.212;27.932;2024-01-10T07:44:44;7.93;;;2.95;;
40993;SDS011;26722;43.212;27.932;2024-01-10T07:47:09;11.93;;;3.53;;
40993;SDS011;26722;43.212;27.932;2024-01-10T07:49:35;9.25;;;3.95;;
40993;SDS011;26722;43.212;27.932;2024-01-10T07:52:01;11.52;;;3.97;;
40993;SDS011;26722;43.212;27.932;2024-01-10T07:54:27;6.97;;;3.28;;
40993;SDS011;26722;43.212;27.932;2024-01-10T07:56:52;10.90;;;3.65;;
40993;SDS011;26722;43.212;27.932;2024-01-10T07:59:19;8.02;;;3.30;;
40993;SDS011;26722;43.212;27.932;2024-01-10T08:01:53;5.82;;;2.40;;
40993;SDS011;26722;43.212;27.932;2024-01-10T08:04:19;7.70;;;3.47;;
40993;SDS011;26722;43.212;27.932;2024-01-10T08:06:44;9.45;;;3.28;;
40993;SDS011;26722;43.212;27.932;2024-01-10T08:09:09;7.03;;;2.90;;
40993;SDS011;26722;43.212;27.932;2024-01-10T08:11:35;6.38;;;2.80;;
40993;SDS011;26722;43.212;27.932;2024-01-10T08:14:01;5.65;;;2.85;;
40993;SDS011;26722;43.212;27.932;2024-01-10T08:16:26;7.65;;;3.28;;
40993;SDS011;26722;43.212;27.932;2024-01-10T08:18:51;6.75;;;2.90;;
40993;SDS011;26722;43.212;27.932;2024-01-10T08:21:16;4.78;;;2.63;;
40993;SDS011;26722;43.212;27.932;2024-01-10T08:23:42;4.25;;;2.20;;
40993;SDS011;26722;43.212;27.932;2024-01-10T08:26:07;8.75;;;2.78;;
40993;SDS011;26722;43.212;27.932;2024-01-10T08:28:33;4.75;;;2.25;;
40993;SDS011;26722;43.212;27.932;2024-01-10T08:30:58;5.75;;;2.65;;
40993;SDS011;26722;43.212;27.932;2024-01-10T08:33:23;5.60;;;2.35;;
40993;SDS011;26722;43.212;27.932;2024-01-10T08:35:49;3.55;;;2.10;;
40993;SDS011;26722;43.212;27.932;2024-01-10T08:38:14;10.73;;;2.72;;
40993;SDS011;26722;43.212;27.932;2024-01-10T08:40:39;7.85;;;3.13;;
40993;SDS011;26722;43.212;27.932;2024-01-10T08:43:04;6.85;;;2.95;;
40993;SDS011;26722;43.212;27.932;2024-01-10T08:45:30;5.95;;;2.85;;
40993;SDS011;26722;43.212;27.932;2024-01-10T08:47:55;10.57;;;2.55;;
40993;SDS011;26722;43.212;27.932;2024-01-10T08:50:20;9.48;;;2.65;;
40993;SDS011;26722;43.212;27.932;2024-01-10T08:52:47;4.80;;;2.10;;
40993;SDS011;26722;43.212;27.932;2024-01-10T08:55:12;4.78;;;2.30;;
40993;SDS011;26722;43.212;27.932;2024-01-10T08:57:37;7.78;;;3.15;;
40993;SDS011;26722;43.212;27.932;2024-01-10T09:00:03;6.43;;;2.88;;
40993;SDS011;26722;43.212;27.932;2024-01-10T09:02:31;6.82;;;2.60;;
40993;SDS011;26722;43.212;27.932;2024-01-10T09:04:58;5.00;;;2.65;;
40993;SDS011;26722;43.212;27.932;2024-01-10T09:07:23;7.60;;;3.22;;
40993;SDS011;26722;43.212;27.932;2024-01-10T09:09:48;6.40;;;2.80;;
40993;SDS011;26722;43.212;27.932;2024-01-10T09:12:14;6.35;;;2.72;;
40993;SDS011;26722;43.212;27.932;2024-01-10T09:14:39;10.02;;;3.47;;
40993;SDS011;26722;43.212;27.932;2024-01-10T09:17:05;9.10;;;2.97;;
40993;SDS011;26722;43.212;27.932;2024-01-10T09:19:30;9.57;;;2.80;;
40993;SDS011;26722;43.212;27.932;2024-01-10T09:21:56;12.55;;;3.95;;
40993;SDS011;26722;43.212;27.932;2024-01-10T09:24:22;11.30;;;4.70;;
40993;SDS011;26722;43.212;27.932;2024-01-10T09:26:48;12.00;;;6.10;;
40993;SDS011;26722;43.212;27.932;2024-01-10T09:29:13;10.23;;;4.30;;
40993;SDS011;26722;43.212;27.932;2024-01-10T09:31:38;12.15;;;4.65;;
40993;SDS011;26722;43.212;27.932;2024-01-10T09:34:03;10.57;;;5.38;;
40993;SDS011;26722;43.212;27.932;2024-01-10T09:36:30;7.68;;;4.03;;
40993;SDS011;26722;43.212;27.932;2024-01-10T09:38:55;12.20;;;5.20;;
40993;SDS011;26722;43.212;27.932;2024-01-10T09:41:20;12.57;;;4.30;;
40993;SDS011;26722;43.212;27.932;2024-01-10T09:43:45;10.13;;;3.30;;
40993;SDS011;26722;43.212;27.932;2024-01-10T09:46:11;11.48;;;4.43;;
40993;SDS011;26722;43.212;27.932;2024-01-10T09:48:37;15.55;;;6.00;;
40993;SDS011;26722;43.212;27.932;2024-01-10T09:51:02;16.90;;;6.07;;
40993;SDS011;26722;43.212;27.932;2024-01-10T09:53:28;12.95;;;5.07;;
40993;SDS011;26722;43.212;27.932;2024-01-10T09:55:56;18.38;;;6.07;;
40993;SDS011;26722;43.212;27.932;2024-01-10T09:58:25;15.70;;;6.53;;
40993;SDS011;26722;43.212;27.932;2024-01-10T10:00:50;13.20;;;6.15;;
40993;SDS011;26722;43.212;27.932;2024-01-10T10:03:16;12.93;;;5.50;;
40993;SDS011;26722;43.212;27.932;2024-01-10T10:05:42;16.60;;;6.65;;
40993;SDS011;26722;43.212;27.932;2024-01-10T10:08:10;15.07;;;5.43;;
40993;SDS011;26722;43.212;27.932;2024-01-10T10:10:36;16.50;;;6.05;;
40993;SDS011;26722;43.212;27.932;2024-01-10T10:13:01;15.40;;;7.22;;
40993;SDS011;26722;43.212;27.932;2024-01-10T10:15:27;18.63;;;6.78;;
40993;SDS011;26722;43.212;27.932;2024-01-10T10:17:53;15.80;;;6.05;;
40993;SDS011;26722;43.212;27.932;2024-01-10T10:20:23;13.40;;;6.20;;
40993;SDS011;26722;43.212;27.932;2024-01-10T10:26:02;14.85;;;5.97;;
40993;SDS011;26722;43.212;27.932;2024-01-10T10:28:21;12.18;;;5.50;;
40993;SDS011;26722;43.212;27.932;2024-01-10T10:30:46;19.80;;;6.78;;
40993;SDS011;26722;43.212;27.932;2024-01-10T10:33:11;16.15;;;6.82;;
40993;SDS011;26722;43.212;27.932;2024-01-10T10:35:36;16.50;;;7.60;;
40993;SDS011;26722;43.212;27.932;2024-01-10T10:38:02;14.43;;;6.78;;
40993;SDS011;26722;43.212;27.932;2024-01-10T10:40:28;13.82;;;6.40;;
40993;SDS011;26722;43.212;27.932;2024-01-10T10:42:56;10.77;;;5.22;;
40993;SDS011;26722;43.212;27.932;2024-01-10T10:45:22;18.13;;;7.10;;
40993;SDS011;26722;43.212;27.932;2024-01-10T10:48:00;20.88;;;6.93;;
40993;SDS011;26722;43.212;27.932;2024-01-10T10:50:32;13.90;;;6.47;;
40993;SDS011;26722;43.212;27.932;2024-01-10T10:52:58;11.93;;;5.90;;
40993;SDS011;26722;43.212;27.932;2024-01-10T10:55:23;15.50;;;5.93;;
40993;SDS011;26722;43.212;27.932;2024-01-10T10:57:50;13.63;;;5.75;;
40993;SDS011;26722;43.212;27.932;2024-01-10T11:00:16;12.77;;;6.15;;
40993;SDS011;26722;43.212;27.932;2024-01-10T11:02:42;15.75;;;6.32;;
40993;SDS011;26722;43.212;27.932;2024-01-10T11:05:09;14.13;;;5.85;;
40993;SDS011;26722;43.212;27.932;2024-01-10T11:07:41;15.25;;;6.50;;
40993;SDS011;26722;43.212;27.932;2024-01-10T11:10:28;15.75;;;7.65;;
40993;SDS011;26722;43.212;27.932;2024-01-10T11:15:40;18.35;;;7.75;;
40993;SDS011;26722;43.212;27.932;2024-01-10T11:18:13;14.73;;;5.93;;
40993;SDS011;26722;43.212;27.932;2024-01-10T11:23:33;15.85;;;6.38;;
40993;SDS011;26722;43.212;27.932;2024-01-10T11:26:01;14.80;;;6.25;;
40993;SDS011;26722;43.212;27.932;2024-01-10T11:28:30;14.90;;;6.40;;
40993;SDS011;26722;43.212;27.932;2024-01-10T11:30:55;15.68;;;6.75;;
40993;SDS011;26722;43.212;27.932;2024-01-10T11:33:31;17.95;;;7.25;;
40993;SDS011;26722;43.212;27.932;2024-01-10T11:36:19;14.70;;;6.63;;
40993;SDS011;26722;43.212;27.932;2024-01-10T11:38:53;18.73;;;7.82;;
40993;SDS011;26722;43.212;27.932;2024-01-10T11:41:23;16.92;;;7.50;;
40993;SDS011;26722;43.212;27.932;2024-01-10T11:46:33;16.50;;;7.78;;
40993;SDS011;26722;43.212;27.932;2024-01-10T11:48:58;16.33;;;5.72;;
40993;SDS011;26722;43.212;27.932;2024-01-10T11:51:24;16.10;;;6.53;;
40993;SDS011;26722;43.212;27.932;2024-01-10T11:53:49;13.10;;;6.40;;
40993;SDS011;26722;43.212;27.932;2024-01-10T11:56:15;12.48;;;6.00;;
40993;SDS011;26722;43.212;27.932;2024-01-10T12:01:20;17.17;;;6.70;;
40993;SDS011;26722;43.212;27.932;2024-01-10T12:03:45;13.80;;;6.32;;
40993;SDS011;26722;43.212;27.932;2024-01-10T12:06:12;16.63;;;5.65;;
40993;SDS011;26722;43.212;27.932;2024-01-10T12:08:37;14.98;;;6.25;;
40993;SDS011;26722;43.212;27.932;2024-01-10T12:11:03;13.98;;;5.30;;
40993;SDS011;26722;43.212;27.932;2024-01-10T12:13:29;12.68;;;5.57;;
40993;SDS011;26722;43.212;27.932;2024-01-10T12:15:56;16.58;;;6.57;;
40993;SDS011;26722;43.212;27.932;2024-01-10T12:18:21;17.65;;;6.20;;
40993;SDS011;26722;43.212;27.932;2024-01-10T12:20:46;15.00;;;6.10;;
40993;SDS011;26722;43.212;27.932;2024-01-10T12:23:12;14.93;;;4.63;;
40993;SDS011;26722;43.212;27.932;2024-01-10T12:25:37;13.52;;;6.22;;
40993;SDS011;26722;43.212;27.932;2024-01-10T12:28:02;12.02;;;5.22;;
40993;SDS011;26722;43.212;27.932;2024-01-10T12:30:29;12.85;;;5.82;;
40993;SDS011;26722;43.212;27.932;2024-01-10T12:32:55;10.32;;;4.95;;
40993;SDS011;26722;43.212;27.932;2024-01-10T12:35:21;13.60;;;4.95;;
40993;SDS011;26722;43.212;27.932;2024-01-10T12:37:56;14.95;;;4.80;;
40993;SDS011;26722;43.212;27.932;2024-01-10T12:40:21;11.00;;;5.03;;
40993;SDS011;26722;43.212;27.932;2024-01-10T12:42:47;15.43;;;5.15;;
40993;SDS011;26722;43.212;27.932;2024-01-10T12:45:21;9.32;;;4.45;;
40993;SDS011;26722;43.212;27.932;2024-01-10T12:47:47;10.73;;;4.72;;
40993;SDS011;26722;43.212;27.932;2024-01-10T12:50:12;18.13;;;5.40;;
40993;SDS011;26722;43.212;27.932;2024-01-10T12:52:38;8.70;;;4.68;;
40993;SDS011;26722;43.212;27.932;2024-01-10T12:55:05;16.13;;;5.75;;
40993;SDS011;26722;43.212;27.932;2024-01-10T12:57:30;10.48;;;5.60;;
40993;SDS011;26722;43.212;27.932;2024-01-10T12:59:56;13.18;;;5.50;;
40993;SDS011;26722;43.212;27.932;2024-01-10T13:02:21;10.27;;;5.45;;
40993;SDS011;26722;43.212;27.932;2024-01-10T13:04:46;14.63;;;5.43;;
40993;SDS011;26722;43.212;27.932;2024-01-10T13:07:12;17.52;;;6.18;;
40993;SDS011;26722;43.212;27.932;2024-01-10T13:09:37;11.50;;;5.90;;
40993;SDS011;26722;43.212;27.932;2024-01-10T13:12:02;12.80;;;6.05;;
40993;SDS011;26722;43.212;27.932;2024-01-10T13:14:28;11.02;;;4.90;;
40993;SDS011;26722;43.212;27.932;2024-01-10T13:16:56;15.07;;;6.32;;
40993;SDS011;26722;43.212;27.932;2024-01-10T13:19:21;12.90;;;5.40;;
40993;SDS011;26722;43.212;27.932;2024-01-10T13:21:46;13.82;;;5.88;;
40993;SDS011;26722;43.212;27.932;2024-01-10T13:24:12;13.38;;;6.43;;
40993;SDS011;26722;43.212;27.932;2024-01-10T13:26:37;16.27;;;6.90;;
40993;SDS011;26722;43.212;27.932;2024-01-10T13:29:03;10.07;;;5.30;;
40993;SDS011;26722;43.212;27.932;2024-01-10T13:31:28;15.10;;;6.88;;
40993;SDS011;26722;43.212;27.932;2024-01-10T13:33:53;12.50;;;5.90;;
40993;SDS011;26722;43.212;27.932;2024-01-10T13:36:19;16.25;;;6.65;;
40993;SDS011;26722;43.212;27.932;2024-01-10T13:38:44;19.02;;;7.40;;
40993;SDS011;26722;43.212;27.932;2024-01-10T13:41:10;12.60;;;6.78;;
40993;SDS011;26722;43.212;27.932;2024-01-10T13:43:35;23.77;;;7.90;;
40993;SDS011;26722;43.212;27.932;2024-01-10T13:46:00;18.60;;;6.70;;
40993;SDS011;26722;43.212;27.932;2024-01-10T13:48:29;20.08;;;7.70;;
40993;SDS011;26722;43.212;27.932;2024-01-10T13:50:54;16.70;;;6.68;;
40993;SDS011;26722;43.212;27.932;2024-01-10T13:53:19;14.50;;;6.50;;
40993;SDS011;26722;43.212;27.932;2024-01-10T13:55:45;17.65;;;7.55;;
40993;SDS011;26722;43.212;27.932;2024-01-10T13:58:11;26.90;;;8.77;;
40993;SDS011;26722;43.212;27.932;2024-01-10T14:00:36;16.38;;;7.82;;
40993;SDS011;26722;43.212;27.932;2024-01-10T14:03:03;16.80;;;8.55;;
40993;SDS011;26722;43.212;27.932;2024-01-10T14:05:28;27.50;;;9.27;;
40993;SDS011;26722;43.212;27.932;2024-01-10T14:07:54;18.98;;;8.70;;
40993;SDS011;26722;43.212;27.932;2024-01-10T14:10:19;19.42;;;8.90;;
40993;SDS011;26722;43.212;27.932;2024-01-10T14:12:45;20.98;;;8.75;;
40993;SDS011;26722;43.212;27.932;2024-01-10T14:15:11;21.67;;;8.70;;
40993;SDS011;26722;43.212;27.932;2024-01-10T14:17:36;21.65;;;9.07;;
40993;SDS011;26722;43.212;27.932;2024-01-10T14:20:01;18.45;;;8.27;;
40993;SDS011;26722;43.212;27.932;2024-01-10T14:22:26;22.42;;;9.65;;
40993;SDS011;26722;43.212;27.932;2024-01-10T14:24:53;20.70;;;8.55;;
40993;SDS011;26722;43.212;27.932;2024-01-10T14:27:22;21.63;;;10.07;;
40993;SDS011;26722;43.212;27.932;2024-01-10T14:29:47;21.15;;;8.98;;